createdAt,value
2019-04-26T00:02:45.503Z,1.40
2019-04-26T00:05:14.398Z,1.13
2019-04-26T00:07:42.397Z,1.87
2019-04-26T00:10:24.291Z,3.13
2019-04-26T00:12:59.258Z,2.97
2019-04-26T00:15:49.632Z,1.23
2019-04-26T00:18:17.405Z,2.00
2019-04-26T00:20:45.090Z,3.03
2019-04-26T00:23:12.715Z,1.93
2019-04-26T00:25:40.568Z,2.30
2019-04-26T00:28:08.290Z,2.67
2019-04-26T00:30:36.055Z,3.43
2019-04-26T00:33:03.671Z,2.77
2019-04-26T00:35:31.293Z,3.20
2019-04-26T00:37:58.935Z,9.67
2019-04-26T00:40:26.724Z,12.50
2019-04-26T00:42:57.488Z,11.53
2019-04-26T00:45:28.268Z,8.63
2019-04-26T00:47:57.039Z,5.83
2019-04-26T00:50:24.773Z,5.77
2019-04-26T00:52:53.374Z,3.83
2019-04-26T00:55:21.899Z,3.20
2019-04-26T00:57:50.518Z,3.43
2019-04-26T01:00:19.466Z,2.23
2019-04-26T01:02:50.784Z,3.03
2019-04-26T01:05:18.924Z,2.03
2019-04-26T01:07:48.836Z,2.37
2019-04-26T01:10:17.689Z,2.57
2019-04-26T01:12:45.674Z,1.77
2019-04-26T01:15:15.783Z,2.83
2019-04-26T01:17:42.702Z,1.90
2019-04-26T01:20:11.560Z,1.53
2019-04-26T01:22:44.378Z,2.90
2019-04-26T01:25:40.955Z,1.93
2019-04-26T01:28:13.134Z,2.07
2019-04-26T01:30:42.087Z,2.70
2019-04-26T01:33:10.894Z,1.63
2019-04-26T01:35:39.290Z,1.77
2019-04-26T01:38:10.408Z,3.70
2019-04-26T01:40:38.055Z,1.60
2019-04-26T01:43:16.158Z,1.60
2019-04-26T01:45:51.704Z,1.67
2019-04-26T01:48:45.465Z,1.90
2019-04-26T01:51:20.218Z,4.03
2019-04-26T01:53:51.044Z,1.50
2019-04-26T01:56:23.213Z,1.40
2019-04-26T01:58:51.325Z,2.10
2019-04-26T02:01:44.174Z,4.00
2019-04-26T02:04:11.911Z,2.00
2019-04-26T02:06:39.602Z,2.40
2019-04-26T02:09:08.920Z,2.27
2019-04-26T02:11:37.216Z,3.37
2019-04-26T02:14:05.200Z,2.67
2019-04-26T02:16:33.321Z,1.83
2019-04-26T02:19:01.164Z,2.00
2019-04-26T02:21:34.265Z,1.70
2019-04-26T02:24:25.322Z,2.90
2019-04-26T02:26:55.051Z,3.27
2019-04-26T02:29:26.713Z,1.73
2019-04-26T02:31:58.606Z,1.93
2019-04-26T02:34:28.926Z,1.63
2019-04-26T02:37:00.037Z,1.97
2019-04-26T02:39:37.906Z,1.93
2019-04-26T02:42:18.844Z,2.70
2019-04-26T02:44:58.770Z,2.67
2019-04-26T02:47:57.313Z,2.27
2019-04-26T02:50:33.230Z,1.77
2019-04-26T02:53:34.865Z,2.63
2019-04-26T02:56:37.706Z,2.50
2019-04-26T02:59:41.701Z,2.10
2019-04-26T03:02:36.661Z,1.80
2019-04-26T03:05:09.979Z,1.90
2019-04-26T03:08:14.384Z,1.90
2019-04-26T03:10:47.045Z,3.13
2019-04-26T03:13:24.604Z,2.67
2019-04-26T03:16:11.743Z,2.53
2019-04-26T03:18:56.159Z,2.20
2019-04-26T03:21:36.395Z,2.20
2019-04-26T03:24:15.439Z,2.57
2019-04-26T03:27:15.429Z,2.53
2019-04-26T03:30:19.842Z,1.70
2019-04-26T03:33:07.471Z,3.13
2019-04-26T03:36:16.727Z,2.37
2019-04-26T03:38:56.150Z,2.53
2019-04-26T03:42:11.200Z,2.73
2019-04-26T03:44:52.423Z,2.93
2019-04-26T03:47:24.469Z,4.60
2019-04-26T03:50:10.533Z,1.90
2019-04-26T03:53:11.158Z,4.30
2019-04-26T03:57:14.756Z,2.57
2019-04-26T04:00:20.451Z,2.40
2019-04-26T04:03:17.461Z,2.30
2019-04-26T04:05:49.332Z,2.30
2019-04-26T04:08:25.971Z,2.43
2019-04-26T04:10:58.912Z,2.73
2019-04-26T04:13:44.197Z,3.60
2019-04-26T04:16:59.477Z,2.67
2019-04-26T04:20:02.799Z,4.63
2019-04-26T04:22:39.072Z,3.57
2019-04-26T04:25:10.193Z,5.47
2019-04-26T04:28:06.346Z,5.77
2019-04-26T04:31:11.818Z,4.20
2019-04-26T04:33:52.458Z,3.43
2019-04-26T04:36:25.924Z,5.13
2019-04-26T04:39:21.462Z,5.73
2019-04-26T04:42:12.714Z,4.90
2019-04-26T04:45:07.914Z,7.87
2019-04-26T04:47:52.508Z,4.77
2019-04-26T04:50:43.364Z,7.37
2019-04-26T04:53:46.524Z,6.27
2019-04-26T04:57:02.060Z,5.77
2019-04-26T04:59:44.109Z,8.60
2019-04-26T05:02:40.791Z,7.57
2019-04-26T05:05:38.947Z,7.10
2019-04-26T05:08:17.278Z,7.90
2019-04-26T05:11:18.036Z,7.33
2019-04-26T05:14:10.238Z,8.27
2019-04-26T05:17:19.280Z,8.13
2019-04-26T05:20:28.844Z,9.10
2019-04-26T05:23:43.396Z,7.77
2019-04-26T05:27:06.574Z,8.30
2019-04-26T05:30:23.280Z,7.10
2019-04-26T05:33:23.604Z,10.20
2019-04-26T05:36:27.381Z,7.47
2019-04-26T05:39:29.638Z,7.80
2019-04-26T05:42:53.997Z,8.23
2019-04-26T05:46:13.732Z,7.77
2019-04-26T05:49:28.749Z,7.90
2019-04-26T05:52:34.457Z,7.97
2019-04-26T05:55:35.395Z,7.90
2019-04-26T05:58:24.933Z,9.37
2019-04-26T06:01:34.333Z,10.47
2019-04-26T06:04:44.550Z,8.97
2019-04-26T06:07:36.603Z,9.53
2019-04-26T06:10:42.106Z,10.30
2019-04-26T06:13:35.469Z,9.90
2019-04-26T06:16:23.591Z,9.60
2019-04-26T06:19:08.880Z,9.80
2019-04-26T06:22:02.198Z,10.57
2019-04-26T06:24:43.116Z,10.43
2019-04-26T06:27:54.560Z,11.73
2019-04-26T06:30:48.334Z,12.57
2019-04-26T06:33:43.789Z,11.73
2019-04-26T06:36:18.612Z,12.23
2019-04-26T06:39:18.913Z,12.23
2019-04-26T06:42:23.199Z,13.57
2019-04-26T06:45:20.878Z,13.73
2019-04-26T06:47:58.965Z,12.60
2019-04-26T06:50:36.723Z,13.80
2019-04-26T06:53:23.664Z,15.33
2019-04-26T06:56:09.837Z,12.03
2019-04-26T06:59:08.325Z,13.83
2019-04-26T07:01:56.547Z,13.30
2019-04-26T07:05:08.015Z,15.50
2019-04-26T07:08:12.706Z,11.90
2019-04-26T07:11:22.198Z,11.10
2019-04-26T07:14:17.757Z,10.67
2019-04-26T07:16:52.725Z,11.37
2019-04-26T07:20:22.014Z,10.23
2019-04-26T07:23:26.319Z,9.87
2019-04-26T07:26:27.012Z,8.53
2019-04-26T07:29:28.458Z,7.80
2019-04-26T07:32:05.596Z,9.20
2019-04-26T07:35:17.161Z,9.73
2019-04-26T07:39:09.026Z,9.57
2019-04-26T07:41:51.498Z,8.47
2019-04-26T07:45:09.034Z,11.13
2019-04-26T07:48:19.774Z,9.23
2019-04-26T07:51:35.402Z,9.60
2019-04-26T07:54:44.049Z,10.20
2019-04-26T07:58:00.172Z,9.93
2019-04-26T08:00:45.010Z,9.87
2019-04-26T08:03:33.749Z,11.00
2019-04-26T08:06:18.537Z,11.67
2019-04-26T08:08:52.064Z,11.40
2019-04-26T08:11:24.651Z,11.77
2019-04-26T08:14:09.080Z,11.17
2019-04-26T08:17:06.387Z,11.63
2019-04-26T08:19:41.188Z,12.60
2019-04-26T08:22:17.858Z,13.33
2019-04-26T08:24:43.026Z,12.27
2019-04-26T08:27:24.193Z,12.23
2019-04-26T08:29:58.376Z,13.13
2019-04-26T08:32:32.205Z,12.70
2019-04-26T08:35:15.518Z,12.43
2019-04-26T08:37:52.511Z,13.13
2019-04-26T08:40:30.624Z,12.60
2019-04-26T08:43:07.235Z,12.00
2019-04-26T08:46:01.926Z,12.90
2019-04-26T08:48:29.238Z,11.80
2019-04-26T08:51:00.608Z,11.30
2019-04-26T08:53:31.028Z,11.50
2019-04-26T08:56:01.898Z,13.37
2019-04-26T08:58:33.409Z,11.43
2019-04-26T09:01:19.855Z,12.53
2019-04-26T09:04:01.175Z,11.23
2019-04-26T09:06:43.045Z,11.80
2019-04-26T09:09:19.775Z,10.20
2019-04-26T09:11:59.606Z,10.60
2019-04-26T09:14:22.906Z,10.60
2019-04-26T09:16:50.940Z,11.57
2019-04-26T09:19:18.826Z,10.93
2019-04-26T09:21:55.603Z,10.33
2019-04-26T09:24:35.199Z,10.00
2019-04-26T09:27:08.850Z,9.73
2019-04-26T09:29:55.991Z,10.63
2019-04-26T09:32:46.171Z,11.63
2019-04-26T09:35:15.493Z,9.70
2019-04-26T09:37:43.988Z,9.80
2019-04-26T09:40:21.018Z,8.47
2019-04-26T09:43:16.818Z,7.90
2019-04-26T09:46:19.124Z,8.73
2019-04-26T09:49:09.250Z,8.40
2019-04-26T09:51:39.154Z,8.90
2019-04-26T09:54:07.336Z,9.20
2019-04-26T09:56:35.548Z,9.57
2019-04-26T09:59:05.595Z,10.30
2019-04-26T10:01:33.449Z,9.27
2019-04-26T10:04:01.264Z,8.53
2019-04-26T10:06:29.771Z,8.57
2019-04-26T10:08:58.601Z,7.70
2019-04-26T10:11:31.015Z,6.40
2019-04-26T10:14:07.665Z,5.53
2019-04-26T10:16:55.052Z,5.53
2019-04-26T10:19:40.524Z,4.60
2019-04-26T10:22:08.503Z,4.70
2019-04-26T10:24:36.555Z,4.50
2019-04-26T10:27:04.977Z,4.40
2019-04-26T10:29:32.810Z,4.43
2019-04-26T10:32:00.496Z,4.27
2019-04-26T10:34:28.290Z,4.87
2019-04-26T10:36:57.087Z,6.00
2019-04-26T10:39:28.588Z,5.43
2019-04-26T10:41:54.493Z,5.37
2019-04-26T10:44:22.488Z,6.00
2019-04-26T10:46:55.763Z,5.40
2019-04-26T10:49:40.293Z,5.43
2019-04-26T10:52:15.755Z,7.33
2019-04-26T10:54:46.398Z,6.30
2019-04-26T10:57:37.247Z,6.70
2019-04-26T11:00:08.916Z,7.23
2019-04-26T11:02:37.556Z,4.23
2019-04-26T11:05:06.929Z,4.37
2019-04-26T11:07:35.293Z,3.17
2019-04-26T11:10:04.948Z,2.30
2019-04-26T11:12:32.931Z,2.40
2019-04-26T11:15:00.795Z,2.07
2019-04-26T11:17:28.823Z,2.43
2019-04-26T11:20:02.119Z,2.57
2019-04-26T11:22:33.470Z,3.83
2019-04-26T11:25:00.234Z,2.47
2019-04-26T11:27:29.088Z,2.50
2019-04-26T11:29:59.650Z,2.20
2019-04-26T11:32:26.641Z,2.83
2019-04-26T11:34:58.172Z,2.40
2019-04-26T11:37:23.987Z,2.53
2019-04-26T11:39:52.290Z,2.97
2019-04-26T11:42:20.056Z,2.67
2019-04-26T11:44:47.944Z,3.17
2019-04-26T11:47:16.061Z,2.50
2019-04-26T11:49:50.137Z,2.93
2019-04-26T11:52:18.490Z,2.30
2019-04-26T11:54:55.138Z,4.20
2019-04-26T11:57:26.347Z,3.37
2019-04-26T11:59:54.194Z,3.10
2019-04-26T12:02:26.987Z,4.13
2019-04-26T12:05:18.031Z,3.30
2019-04-26T12:08:05.025Z,3.40
2019-04-26T12:10:40.480Z,4.67
2019-04-26T12:13:08.430Z,4.10
2019-04-26T12:15:43.186Z,4.67
2019-04-26T12:18:09.652Z,7.20
2019-04-26T12:20:36.926Z,4.27
2019-04-26T12:23:04.676Z,5.87
2019-04-26T12:25:32.385Z,5.77
2019-04-26T12:28:01.844Z,4.83
2019-04-26T12:30:29.591Z,5.07
2019-04-26T12:32:57.260Z,5.30
2019-04-26T12:35:24.923Z,6.20
2019-04-26T12:37:54.719Z,6.87
2019-04-26T12:40:22.058Z,7.10
2019-04-26T12:42:49.741Z,6.17
2019-04-26T12:45:29.603Z,7.90
2019-04-26T12:47:58.485Z,6.37
2019-04-26T12:50:29.454Z,6.17
2019-04-26T12:52:57.397Z,6.10
2019-04-26T12:55:25.577Z,6.00
2019-04-26T12:57:53.952Z,8.60
2019-04-26T13:00:28.241Z,6.97
2019-04-26T13:02:56.135Z,5.33
2019-04-26T13:05:23.862Z,5.80
2019-04-26T13:07:52.875Z,7.07
2019-04-26T13:10:51.981Z,6.80
2019-04-26T13:13:57.366Z,6.73
2019-04-26T13:16:44.500Z,8.07
2019-04-26T13:19:12.145Z,7.27
2019-04-26T13:21:39.829Z,8.37
2019-04-26T13:24:07.466Z,7.63
2019-04-26T13:26:36.448Z,7.20
2019-04-26T13:29:04.199Z,7.53
2019-04-26T13:31:32.084Z,8.20
2019-04-26T13:34:02.855Z,8.37
2019-04-26T13:36:48.927Z,7.10
2019-04-26T13:39:17.852Z,7.57
2019-04-26T13:41:46.023Z,8.17
2019-04-26T13:44:13.731Z,8.20
2019-04-26T13:46:59.391Z,7.87
2019-04-26T13:49:37.928Z,8.37
2019-04-26T13:52:05.607Z,8.03
2019-04-26T13:54:33.299Z,7.63
2019-04-26T13:57:01.065Z,7.63
2019-04-26T13:59:31.676Z,8.33
2019-04-26T14:02:10.622Z,9.37
2019-04-26T14:04:27.787Z,8.53
2019-04-26T14:06:55.433Z,8.53
2019-04-26T14:09:23.151Z,9.83
2019-04-26T14:11:50.836Z,9.27
2019-04-26T14:14:18.507Z,8.30
2019-04-26T14:16:46.139Z,7.47
2019-04-26T14:19:15.575Z,9.40
2019-04-26T14:21:43.301Z,8.40
2019-04-26T14:24:30.446Z,7.70
2019-04-26T14:27:01.191Z,8.23
2019-04-26T14:29:32.505Z,8.20
2019-04-26T14:31:58.307Z,10.03
2019-04-26T14:34:25.949Z,9.63
2019-04-26T14:37:05.927Z,11.27
2019-04-26T14:39:34.976Z,8.60
2019-04-26T14:41:56.676Z,13.37
2019-04-26T14:44:22.019Z,9.00
2019-04-26T14:46:53.321Z,8.93
2019-04-26T14:49:22.917Z,10.20
2019-04-26T14:51:50.841Z,9.03
2019-04-26T14:54:18.115Z,11.10
2019-04-26T14:56:52.017Z,12.13
2019-04-26T14:59:17.855Z,12.03
2019-04-26T15:01:57.248Z,10.27
2019-04-26T15:04:37.041Z,10.80
2019-04-26T15:07:05.774Z,10.53
2019-04-26T15:09:36.351Z,12.53
2019-04-26T15:12:03.515Z,10.83
2019-04-26T15:14:33.040Z,11.20
2019-04-26T15:17:02.481Z,12.37
2019-04-26T15:19:33.399Z,11.33
2019-04-26T15:22:04.027Z,13.37
2019-04-26T15:24:30.060Z,13.13
2019-04-26T15:27:01.804Z,14.27
2019-04-26T15:29:28.415Z,15.47
2019-04-26T15:31:57.247Z,13.70
2019-04-26T15:34:26.566Z,15.90
2019-04-26T15:36:54.445Z,15.30
2019-04-26T15:39:36.275Z,15.47
2019-04-26T15:42:18.670Z,14.70
2019-04-26T15:45:03.447Z,16.23
2019-04-26T15:47:57.794Z,16.73
2019-04-26T15:50:40.980Z,16.30
2019-04-26T15:53:12.766Z,17.27
2019-04-26T15:55:41.450Z,16.70
2019-04-26T15:58:09.372Z,16.80
2019-04-26T16:00:37.069Z,18.93
2019-04-26T16:03:07.347Z,17.03
2019-04-26T16:05:34.292Z,19.57
2019-04-26T16:08:04.499Z,17.40
2019-04-26T16:10:34.746Z,19.53
2019-04-26T16:13:15.807Z,19.70
2019-04-26T16:15:32.244Z,19.87
2019-04-26T16:18:00.121Z,20.70
2019-04-26T16:20:31.636Z,20.90
2019-04-26T16:23:00.390Z,20.53
2019-04-26T16:25:26.707Z,19.47
2019-04-26T16:28:12.754Z,22.67
2019-04-26T16:30:49.217Z,24.33
2019-04-26T16:33:23.327Z,20.30
2019-04-26T16:35:52.505Z,22.47
2019-04-26T16:38:35.864Z,22.60
2019-04-26T16:41:04.161Z,23.73
2019-04-26T16:43:37.714Z,23.77
2019-04-26T16:46:02.266Z,20.90
2019-04-26T16:48:30.150Z,25.23
2019-04-26T16:51:00.874Z,24.00
2019-04-26T16:53:43.713Z,24.40
2019-04-26T16:55:56.723Z,24.87
2019-04-26T16:58:24.845Z,22.97
2019-04-26T17:00:57.192Z,22.83
2019-04-26T17:03:23.572Z,25.03
2019-04-26T17:05:58.845Z,24.03
2019-04-26T17:08:21.104Z,23.97
2019-04-26T17:10:52.155Z,23.50
2019-04-26T17:13:24.801Z,25.07
2019-04-26T17:15:52.104Z,23.50
2019-04-26T17:18:19.421Z,22.10
2019-04-26T17:20:48.475Z,23.77
2019-04-26T17:23:34.537Z,24.57
2019-04-26T17:26:24.585Z,25.20
2019-04-26T17:28:55.421Z,26.10
2019-04-26T17:31:22.830Z,29.27
2019-04-26T17:33:50.644Z,28.20
2019-04-26T17:36:18.319Z,25.47
2019-04-26T17:38:45.975Z,26.10
2019-04-26T17:41:13.889Z,25.37
2019-04-26T17:43:46.763Z,29.63
2019-04-26T17:46:14.585Z,27.63
2019-04-26T17:48:40.887Z,29.27
2019-04-26T17:51:12.147Z,32.53
2019-04-26T17:53:38.108Z,30.93
2019-04-26T17:56:05.835Z,30.87
2019-04-26T17:58:35.737Z,34.97
2019-04-26T18:01:04.013Z,29.43
2019-04-26T18:03:32.724Z,34.30
2019-04-26T18:06:01.060Z,34.20
2019-04-26T18:08:40.635Z,37.70
2019-04-26T18:10:58.344Z,37.10
2019-04-26T18:13:25.995Z,33.90
2019-04-26T18:15:53.777Z,35.03
2019-04-26T18:18:46.213Z,36.67
2019-04-26T18:21:33.509Z,37.33
2019-04-26T18:24:02.814Z,37.93
2019-04-26T18:26:30.761Z,38.97
2019-04-26T18:28:58.423Z,40.43
2019-04-26T18:31:28.942Z,41.50
2019-04-26T18:34:00.586Z,41.40
2019-04-26T18:36:27.646Z,40.30
2019-04-26T18:38:54.659Z,41.17
2019-04-26T18:41:28.813Z,40.97
2019-04-26T18:43:54.139Z,41.57
2019-04-26T18:46:47.161Z,38.63
2019-04-26T18:49:19.900Z,36.63
2019-04-26T18:51:48.508Z,43.73
2019-04-26T18:54:23.444Z,39.60
2019-04-26T18:56:55.174Z,44.10
2019-04-26T18:59:23.661Z,42.57
2019-04-26T19:01:53.495Z,42.70
2019-04-26T19:04:21.515Z,47.03
2019-04-26T19:06:49.226Z,47.03
2019-04-26T19:09:19.015Z,41.67
2019-04-26T19:11:48.453Z,44.10
2019-04-26T19:14:32.667Z,45.50
2019-04-26T19:17:30.132Z,45.83
2019-04-26T19:20:29.629Z,42.53
2019-04-26T19:22:58.996Z,44.87
2019-04-26T19:25:29.983Z,47.50
2019-04-26T19:27:58.714Z,46.67
2019-04-26T19:30:26.160Z,47.50
2019-04-26T19:32:53.975Z,48.73
2019-04-26T19:35:23.869Z,47.37
2019-04-26T19:37:51.848Z,45.13
2019-04-26T19:40:19.595Z,50.13
2019-04-26T19:42:47.482Z,44.33
2019-04-26T19:45:28.686Z,44.73
2019-04-26T19:48:20.541Z,50.70
2019-04-26T19:51:03.316Z,45.93
2019-04-26T19:54:08.630Z,47.57
2019-04-26T19:56:43.798Z,47.07
2019-04-26T19:59:11.541Z,44.50
2019-04-26T20:01:39.247Z,44.60
2019-04-26T20:04:07.084Z,49.17
2019-04-26T20:06:35.263Z,47.97
2019-04-26T20:09:05.330Z,53.27
2019-04-26T20:11:32.972Z,52.00
2019-04-26T20:14:01.448Z,49.87
2019-04-26T20:16:30.491Z,43.50
2019-04-26T20:18:58.186Z,50.33
2019-04-26T20:21:25.811Z,44.73
2019-04-26T20:23:54.554Z,43.67
2019-04-26T20:26:22.649Z,44.77
2019-04-26T20:28:51.382Z,45.80
2019-04-26T20:31:37.567Z,44.57
2019-04-26T20:34:05.651Z,41.47
2019-04-26T20:36:40.150Z,48.07
2019-04-26T20:39:06.270Z,46.23
2019-04-26T20:41:33.957Z,47.37
2019-04-26T20:44:07.552Z,43.60
2019-04-26T20:46:34.342Z,43.57
2019-04-26T20:49:05.924Z,47.10
2019-04-26T20:51:32.293Z,46.17
2019-04-26T20:54:00.035Z,48.67
2019-04-26T20:56:27.680Z,47.20
2019-04-26T20:58:57.449Z,48.10
2019-04-26T21:01:24.955Z,51.37
2019-04-26T21:03:52.603Z,48.17
2019-04-26T21:06:21.986Z,50.83
2019-04-26T21:08:49.870Z,48.43
2019-04-26T21:11:17.632Z,41.97
2019-04-26T21:13:45.270Z,46.07
2019-04-26T21:16:15.276Z,44.67
2019-04-26T21:18:44.379Z,46.67
2019-04-26T21:21:12.086Z,46.30
2019-04-26T21:23:41.799Z,46.87
2019-04-26T21:26:22.221Z,43.30
2019-04-26T21:29:07.647Z,44.53
2019-04-26T21:31:45.485Z,44.30
2019-04-26T21:34:16.562Z,43.17
2019-04-26T21:37:03.440Z,50.63
2019-04-26T21:39:50.718Z,42.77
2019-04-26T21:42:20.924Z,44.60
2019-04-26T21:44:51.514Z,46.73
2019-04-26T21:47:17.276Z,47.80
2019-04-26T21:49:44.938Z,45.07
2019-04-26T21:52:13.684Z,47.67
2019-04-26T21:54:43.178Z,46.93
2019-04-26T21:57:10.990Z,44.13
2019-04-26T21:59:40.901Z,50.23
2019-04-26T22:02:08.719Z,44.10
2019-04-26T22:04:37.712Z,41.57
2019-04-26T22:07:07.699Z,45.57
2019-04-26T22:09:55.070Z,45.70
2019-04-26T22:12:23.313Z,47.17
2019-04-26T22:15:00.832Z,45.67
2019-04-26T22:17:34.783Z,48.17
2019-04-26T22:20:23.439Z,48.33
2019-04-26T22:23:28.575Z,46.93
2019-04-26T22:26:00.266Z,48.23
2019-04-26T22:28:26.991Z,48.20
2019-04-26T22:30:55.245Z,49.97
2019-04-26T22:33:23.473Z,49.13
2019-04-26T22:35:55.291Z,47.53
2019-04-26T22:38:23.720Z,48.77
2019-04-26T22:40:53.272Z,50.53
2019-04-26T22:43:44.139Z,51.33
2019-04-26T22:46:46.480Z,50.37
2019-04-26T22:49:07.151Z,47.60
2019-04-26T22:51:37.189Z,48.63
2019-04-26T22:54:06.214Z,51.77
2019-04-26T22:56:37.133Z,51.90
2019-04-26T22:59:07.597Z,45.20
2019-04-26T23:01:35.023Z,46.53
2019-04-26T23:04:03.511Z,45.90
2019-04-26T23:06:31.211Z,45.83
2019-04-26T23:08:58.862Z,48.73
2019-04-26T23:11:26.817Z,46.70
2019-04-26T23:14:17.818Z,50.80
2019-04-26T23:17:11.585Z,46.63
2019-04-26T23:20:03.059Z,50.40
2019-04-26T23:22:32.051Z,48.27
2019-04-26T23:25:00.784Z,48.57
2019-04-26T23:27:28.417Z,44.87
2019-04-26T23:29:58.324Z,49.80
2019-04-26T23:32:25.628Z,47.80
2019-04-26T23:34:53.639Z,48.63
2019-04-26T23:37:25.879Z,44.27
2019-04-26T23:39:51.124Z,48.83
2019-04-26T23:42:18.844Z,46.10
2019-04-26T23:44:46.464Z,50.00
2019-04-26T23:47:22.383Z,48.00
2019-04-26T23:49:43.595Z,47.90
2019-04-26T23:52:14.533Z,50.10
2019-04-26T23:54:40.714Z,46.40
2019-04-26T23:57:08.392Z,44.27
2019-04-26T23:59:36.056Z,44.57
